Time;durP1;ratioP1;P1;durP2;ratioP2;P2;SDS_P1;SDS_P2;PMS_P1;PMS_P2;Temp;Humidity;BMP_temperature;BMP_pressure;BME280_temperature;BME280_humidity;BME280_pressure;Samples;Min_cycle;Max_cycle;Signal;HPM_P1;HPM_P2
2022/08/24 00:00:58;;;;;;;76.53;32.55;;;18.90;99.90;;;;;;5012131;28;20187;-55
2022/08/24 00:03:23;;;;;;;74.78;32.30;;;18.80;99.90;;;;;;5013228;28;20120;-54
2022/08/24 00:05:49;;;;;;;83.13;34.47;;;18.80;99.90;;;;;;5031245;28;20045;-55
2022/08/24 00:08:17;;;;;;;89.15;36.13;;;18.80;99.90;;;;;;5032527;28;20041;-56
2022/08/24 00:10:43;;;;;;;97.97;35.33;;;18.80;99.90;;;;;;5032701;28;20053;-54
2022/08/24 00:13:09;;;;;;;114.85;38.20;;;18.80;99.90;;;;;;5032693;28;20029;-54
2022/08/24 00:15:35;;;;;;;116.82;39.45;;;18.60;99.90;;;;;;5032624;28;20026;-56
2022/08/24 00:18:01;;;;;;;133.40;40.47;;;18.60;99.90;;;;;;5032556;28;20049;-55
2022/08/24 00:20:27;;;;;;;129.48;43.25;;;18.50;99.90;;;;;;5032497;28;20025;-54
2022/08/24 00:22:53;;;;;;;130.80;40.15;;;18.50;99.90;;;;;;5032063;28;20527;-55
2022/08/24 00:25:19;;;;;;;122.50;40.47;;;18.50;99.90;;;;;;5032454;28;20026;-55
2022/08/24 00:27:45;;;;;;;116.00;38.53;;;18.50;99.90;;;;;;5032577;28;20026;-54
2022/08/24 00:30:14;;;;;;;121.20;38.38;;;18.50;99.90;;;;;;5032494;28;20087;-55
2022/08/24 00:32:41;;;;;;;124.07;39.00;;;18.60;99.90;;;;;;5031986;28;20025;-54
2022/08/24 00:35:08;;;;;;;124.57;38.35;;;18.60;99.90;;;;;;5024196;28;20032;-55
2022/08/24 00:37:34;;;;;;;113.13;37.07;;;18.60;99.90;;;;;;5021888;28;20109;-54
2022/08/24 00:40:01;;;;;;;121.13;37.38;;;18.60;99.90;;;;;;5019926;28;20029;-55
2022/08/24 00:42:26;;;;;;;112.03;37.90;;;18.60;99.90;;;;;;5021339;28;20045;-55
2022/08/24 00:44:52;;;;;;;110.68;37.65;;;18.60;99.90;;;;;;5021301;28;20477;-55
2022/08/24 00:47:20;;;;;;;105.45;37.10;;;18.60;99.90;;;;;;4994752;28;20038;-54
2022/08/24 00:50:01;;;;;;;98.85;34.90;;;18.60;99.90;;;;;;5011953;28;20033;-55
2022/08/24 00:52:32;;;;;;;104.22;37.33;;;18.60;99.90;;;;;;5012229;28;20034;-56
2022/08/24 00:55:04;;;;;;;96.90;34.55;;;18.70;99.90;;;;;;5014213;28;20036;-56
2022/08/24 00:57:36;;;;;;;103.82;36.42;;;18.70;99.90;;;;;;5020806;28;20403;-55
2022/08/24 01:00:15;;;;;;;83.00;32.03;;;18.70;99.90;;;;;;5022138;28;20088;-55
2022/08/24 01:02:44;;;;;;;92.47;33.45;;;18.80;99.90;;;;;;5021966;28;20037;-55
2022/08/24 01:05:11;;;;;;;83.20;31.45;;;18.80;99.90;;;;;;5008463;28;20054;-55
2022/08/24 01:07:38;;;;;;;88.70;32.67;;;18.80;99.90;;;;;;5012057;28;20064;-54
2022/08/24 01:10:08;;;;;;;89.22;31.75;;;18.80;99.90;;;;;;5011952;28;20058;-55
2022/08/24 01:12:36;;;;;;;87.95;32.13;;;18.80;99.90;;;;;;5004872;28;20026;-54
2022/08/24 01:15:05;;;;;;;84.28;32.47;;;18.80;99.90;;;;;;5001719;28;20026;-55
2022/08/24 01:20:16;;;;;;;101.70;34.88;;;18.80;99.90;;;;;;5006879;28;20544;-54
2022/08/24 01:22:54;;;;;;;104.25;34.70;;;18.80;99.90;;;;;;5011466;28;20500;-54
2022/08/24 01:25:22;;;;;;;94.28;32.25;;;18.80;99.90;;;;;;4994144;28;20033;-55
2022/08/24 01:27:50;;;;;;;92.28;34.10;;;18.80;99.90;;;;;;5011691;28;20022;-55
2022/08/24 01:30:17;;;;;;;100.53;36.40;;;18.80;99.90;;;;;;5011444;28;20034;-55
2022/08/24 01:32:52;;;;;;;97.15;32.70;;;18.80;99.90;;;;;;5011475;28;20030;-55
2022/08/24 01:35:18;;;;;;;105.53;34.63;;;18.80;99.90;;;;;;5011414;28;20025;-54
2022/08/24 01:37:44;;;;;;;110.15;35.55;;;18.80;99.90;;;;;;5011412;28;20036;-55
2022/08/24 01:40:10;;;;;;;107.95;35.72;;;18.80;99.90;;;;;;5011468;28;20022;-55
2022/08/24 01:42:36;;;;;;;103.80;37.35;;;18.90;99.90;;;;;;5011295;28;20045;-55
2022/08/24 01:45:03;;;;;;;106.53;37.28;;;18.80;99.90;;;;;;5011266;28;20028;-55
2022/08/24 01:47:29;;;;;;;;;;;18.80;99.90;;;;;;5011702;28;20045;-56
2022/08/24 01:49:55;;;;;;;107.70;36.10;;;18.80;99.90;;;;;;5011144;28;19905;-56
2022/08/24 01:52:24;;;;;;;111.35;35.92;;;18.80;99.90;;;;;;5011281;28;20097;-54
2022/08/24 01:54:50;;;;;;;113.03;37.72;;;18.90;99.90;;;;;;5010937;28;20025;-54
2022/08/24 01:57:16;;;;;;;113.47;39.10;;;18.90;99.90;;;;;;5011111;28;20022;-55
2022/08/24 01:59:42;;;;;;;109.18;37.75;;;18.90;99.90;;;;;;5011096;28;20026;-56
2022/08/24 02:02:13;;;;;;;123.40;38.97;;;19.00;99.90;;;;;;5010143;28;20667;-55
2022/08/24 02:04:39;;;;;;;121.57;39.85;;;19.00;99.90;;;;;;5019500;28;20084;-54
2022/08/24 02:07:05;;;;;;;119.40;39.42;;;18.90;99.90;;;;;;5030745;28;20053;-55
2022/08/24 02:09:30;;;;;;;110.07;38.58;;;18.90;99.90;;;;;;5030421;28;20052;-55
2022/08/24 02:11:56;;;;;;;116.75;38.92;;;19.00;99.90;;;;;;5022009;28;20076;-55
2022/08/24 02:14:22;;;;;;;112.70;39.75;;;19.00;99.90;;;;;;5009892;28;20030;-55
2022/08/24 02:16:48;;;;;;;102.07;34.97;;;18.90;99.90;;;;;;5011306;28;20057;-55
2022/08/24 02:19:13;;;;;;;99.03;36.85;;;18.90;99.90;;;;;;5010978;28;20022;-55
2022/08/24 02:21:39;;;;;;;111.05;36.67;;;18.90;99.90;;;;;;5010905;28;20043;-55
2022/08/24 02:24:06;;;;;;;99.32;36.70;;;18.90;99.90;;;;;;5010374;28;20497;-55
2022/08/24 02:26:31;;;;;;;110.20;34.77;;;18.80;99.90;;;;;;5010164;28;20417;-55
2022/08/24 02:28:57;;;;;;;94.45;33.78;;;18.80;99.90;;;;;;5010501;28;20276;-55
2022/08/24 02:31:23;;;;;;;101.40;34.13;;;18.80;99.90;;;;;;5010816;28;20109;-55
2022/08/24 02:33:48;;;;;;;107.50;33.13;;;18.80;99.90;;;;;;5010803;28;20037;-54
2022/08/24 02:36:14;;;;;;;99.35;34.65;;;18.80;99.90;;;;;;5010624;28;20100;-55
2022/08/24 02:38:41;;;;;;;107.63;35.90;;;18.80;99.90;;;;;;5010601;28;20053;-55
2022/08/24 02:41:09;;;;;;;110.95;36.30;;;18.80;99.90;;;;;;5010475;28;20022;-54
2022/08/24 02:43:34;;;;;;;93.65;32.65;;;18.70;99.90;;;;;;5010376;28;20026;-54
2022/08/24 02:46:00;;;;;;;98.68;33.85;;;18.80;99.90;;;;;;5010316;28;20109;-55
2022/08/24 02:48:26;;;;;;;116.80;34.88;;;18.80;99.90;;;;;;5010469;28;20058;-54
2022/08/24 02:50:52;;;;;;;91.43;32.95;;;18.70;99.90;;;;;;5010523;28;20470;-55
2022/08/24 02:53:20;;;;;;;99.63;35.95;;;18.80;99.90;;;;;;5010385;28;20511;-55
2022/08/24 02:55:46;;;;;;;107.03;33.53;;;18.80;99.90;;;;;;5010225;28;20034;-55
2022/08/24 02:58:14;;;;;;;86.60;33.50;;;18.80;99.90;;;;;;5010116;28;20494;-55
2022/08/24 03:00:41;;;;;;;89.30;33.13;;;18.80;99.90;;;;;;5008741;28;20026;-54
2022/08/24 03:03:08;;;;;;;99.13;34.85;;;18.80;99.90;;;;;;5010355;28;20049;-55
2022/08/24 03:05:34;;;;;;;115.10;33.90;;;18.80;99.90;;;;;;4994087;28;20053;-55
2022/08/24 03:08:01;;;;;;;88.72;32.58;;;18.80;99.90;;;;;;4990585;28;20434;-55
2022/08/24 03:10:27;;;;;;;86.93;30.95;;;18.80;99.90;;;;;;4990811;28;20022;-55
2022/08/24 03:12:53;;;;;;;92.65;30.50;;;18.80;99.90;;;;;;4990304;28;20038;-55
2022/08/24 03:15:23;;;;;;;94.95;32.65;;;18.80;99.90;;;;;;4990274;28;20023;-55
2022/08/24 03:17:49;;;;;;;116.68;33.75;;;18.80;99.90;;;;;;4990334;28;20035;-55
2022/08/24 03:20:19;;;;;;;98.78;32.95;;;18.80;99.90;;;;;;4990348;28;20026;-55
2022/08/24 03:22:46;;;;;;;99.18;29.50;;;18.80;99.90;;;;;;4990517;28;20042;-55
2022/08/24 03:25:14;;;;;;;102.25;31.77;;;18.70;99.90;;;;;;4990316;28;20042;-54
2022/08/24 03:27:40;;;;;;;115.32;31.30;;;18.70;99.90;;;;;;4990239;28;20034;-54
2022/08/24 03:30:09;;;;;;;106.15;33.72;;;18.70;99.90;;;;;;4990231;28;20028;-55
2022/08/24 03:32:35;;;;;;;84.50;30.42;;;18.70;99.90;;;;;;4990282;28;20470;-55
2022/08/24 03:35:01;;;;;;;115.38;31.10;;;18.70;99.90;;;;;;4988933;28;20038;-55
2022/08/24 03:37:27;;;;;;;117.75;31.30;;;18.60;99.90;;;;;;4990237;28;20034;-55
2022/08/24 03:39:52;;;;;;;113.53;30.67;;;18.50;99.90;;;;;;4990035;28;20018;-55
2022/08/24 03:42:18;;;;;;;94.60;30.77;;;18.50;99.90;;;;;;4989923;28;20042;-55
2022/08/24 03:44:44;;;;;;;78.13;30.25;;;18.50;99.90;;;;;;4990251;28;20490;-54
2022/08/24 03:47:09;;;;;;;96.03;30.48;;;18.60;99.90;;;;;;4990167;28;20673;-55
2022/08/24 03:49:39;;;;;;;81.40;30.13;;;18.60;99.90;;;;;;4990025;28;20049;-54
2022/08/24 03:52:05;;;;;;;79.18;29.73;;;18.60;99.90;;;;;;4990189;28;20026;-55
2022/08/24 03:54:32;;;;;;;137.88;28.70;;;18.60;99.90;;;;;;4989975;28;20477;-55
2022/08/24 03:56:58;;;;;;;99.35;30.58;;;18.50;99.90;;;;;;4990024;28;20085;-55
2022/08/24 03:59:24;;;;;;;82.72;28.75;;;18.50;99.90;;;;;;4990083;28;20022;-54
2022/08/24 04:01:50;;;;;;;135.02;29.52;;;18.50;99.90;;;;;;4989887;28;20038;-55
2022/08/24 04:04:16;;;;;;;130.48;30.10;;;18.40;99.90;;;;;;4995386;28;20053;-55
2022/08/24 04:06:45;;;;;;;79.82;28.73;;;18.40;99.90;;;;;;5009637;28;20057;-55
2022/08/24 04:09:11;;;;;;;104.55;29.58;;;18.50;99.90;;;;;;5009473;28;20026;-54
2022/08/24 04:11:36;;;;;;;89.45;29.83;;;18.50;99.90;;;;;;5009597;28;20033;-55
2022/08/24 04:14:02;;;;;;;74.72;28.98;;;18.50;99.90;;;;;;5017658;28;20366;-55
2022/08/24 04:16:29;;;;;;;90.50;30.33;;;18.60;99.90;;;;;;5017346;28;20032;-55
2022/08/24 04:18:56;;;;;;;91.63;30.63;;;18.60;99.90;;;;;;5018608;28;20029;-56
2022/08/24 04:21:23;;;;;;;96.45;30.10;;;18.60;99.90;;;;;;5016992;28;20069;-55
2022/08/24 04:23:51;;;;;;;87.95;28.63;;;18.60;99.90;;;;;;5016919;28;20018;-55
2022/08/24 04:26:18;;;;;;;81.43;29.02;;;18.60;99.90;;;;;;5021102;28;20022;-55
2022/08/24 04:28:44;;;;;;;83.97;28.67;;;18.60;99.90;;;;;;5019793;28;20116;-55
2022/08/24 04:31:09;;;;;;;80.13;27.60;;;18.60;99.90;;;;;;5021818;28;20632;-55
2022/08/24 04:33:35;;;;;;;74.07;27.98;;;18.70;99.90;;;;;;5019986;28;20787;-55
2022/08/24 04:36:04;;;;;;;82.07;29.42;;;18.70;99.90;;;;;;5021711;28;20405;-55
2022/08/24 04:38:30;;;;;;;67.28;27.98;;;18.70;99.90;;;;;;5021736;28;20057;-55
2022/08/24 04:40:56;;;;;;;69.43;26.90;;;18.70;99.90;;;;;;5019988;28;20108;-55
2022/08/24 04:43:21;;;;;;;71.47;27.63;;;18.70;99.90;;;;;;5021557;28;20481;-55
2022/08/24 04:45:49;;;;;;;63.13;27.35;;;18.80;99.90;;;;;;5021415;28;20088;-55
2022/08/24 04:48:15;;;;;;;;;;;18.70;99.90;;;;;;5020255;28;20017;-55
2022/08/24 04:50:42;;;;;;;56.47;24.50;;;18.70;99.90;;;;;;5021648;28;19992;-55
2022/08/24 04:53:10;;;;;;;66.38;26.58;;;18.70;99.90;;;;;;5021244;28;20112;-55
2022/08/24 04:55:45;;;;;;;62.42;27.08;;;18.80;99.90;;;;;;5019947;28;20107;-55
2022/08/24 04:58:13;;;;;;;66.88;27.15;;;18.80;99.90;;;;;;5020038;28;20107;-55
2022/08/24 05:00:39;;;;;;;72.50;25.38;;;18.80;99.90;;;;;;5020034;28;20029;-55
2022/08/24 05:03:05;;;;;;;64.45;26.27;;;18.80;99.90;;;;;;5020602;28;20489;-55
2022/08/24 05:05:31;;;;;;;63.22;25.83;;;18.80;99.90;;;;;;5013269;28;20560;-55
2022/08/24 05:07:57;;;;;;;71.47;25.73;;;18.80;99.90;;;;;;5010911;28;20056;-55
2022/08/24 05:10:23;;;;;;;73.88;26.83;;;18.80;99.90;;;;;;5010693;28;20768;-55
2022/08/24 05:12:49;;;;;;;73.18;27.73;;;18.70;99.90;;;;;;5010920;28;20034;-55
2022/08/24 05:15:15;;;;;;;74.88;25.25;;;18.80;99.90;;;;;;5010541;28;20272;-55
2022/08/24 05:17:41;;;;;;;84.63;28.42;;;18.70;99.90;;;;;;5010602;28;20088;-55
2022/08/24 05:20:09;;;;;;;67.10;25.63;;;18.70;99.90;;;;;;5010704;28;20040;-55
2022/08/24 05:22:34;;;;;;;;;;;18.70;99.90;;;;;;5010740;28;20041;-56
2022/08/24 05:25:00;;;;;;;66.47;23.50;;;18.70;99.90;;;;;;5010655;28;19913;-55
2022/08/24 05:27:26;;;;;;;68.32;26.05;;;18.70;99.90;;;;;;5010437;28;20385;-55
2022/08/24 05:29:53;;;;;;;62.13;25.23;;;18.80;99.90;;;;;;5010176;28;20528;-55
2022/08/24 05:32:19;;;;;;;78.10;26.55;;;18.80;99.90;;;;;;5007805;28;20392;-55
2022/08/24 05:34:44;;;;;;;73.38;26.42;;;18.80;99.90;;;;;;5010113;28;20025;-56
2022/08/24 05:37:10;;;;;;;66.22;24.80;;;18.80;99.90;;;;;;5010089;28;20080;-55
2022/08/24 05:39:36;;;;;;;67.15;26.05;;;18.90;99.90;;;;;;4993366;28;20112;-55
2022/08/24 05:42:03;;;;;;;63.15;26.85;;;18.90;99.90;;;;;;5011005;28;20092;-56
2022/08/24 05:44:29;;;;;;;66.63;26.20;;;19.00;99.90;;;;;;5011021;28;20488;-56
2022/08/24 05:46:57;;;;;;;63.25;24.40;;;18.90;99.90;;;;;;5010930;28;20038;-55
2022/08/24 05:49:23;;;;;;;68.90;24.17;;;19.00;99.90;;;;;;5010809;28;20049;-55
2022/08/24 05:51:49;;;;;;;65.40;25.93;;;18.90;99.90;;;;;;5010991;28;20038;-55
2022/08/24 05:54:15;;;;;;;63.40;25.98;;;19.00;99.90;;;;;;5010966;28;20261;-55
2022/08/24 05:56:41;;;;;;;58.25;25.52;;;19.00;99.90;;;;;;5010916;28;20034;-56
2022/08/24 05:59:06;;;;;;;61.30;24.92;;;19.10;99.90;;;;;;5008213;28;20432;-56
2022/08/24 06:01:32;;;;;;;51.00;24.45;;;19.10;99.90;;;;;;5010694;28;20030;-56
2022/08/24 06:03:59;;;;;;;57.10;25.83;;;19.10;99.90;;;;;;5011166;28;20061;-57
2022/08/24 06:06:25;;;;;;;54.88;25.50;;;19.10;99.90;;;;;;5021668;28;20028;-56
2022/08/24 06:08:56;;;;;;;51.35;24.67;;;19.00;99.90;;;;;;5002210;28;20025;-55
2022/08/24 06:11:24;;;;;;;72.82;25.25;;;19.00;99.90;;;;;;5019296;28;20014;-56
2022/08/24 06:13:52;;;;;;;53.10;24.48;;;19.00;99.90;;;;;;5020550;28;20105;-56
2022/08/24 06:16:17;;;;;;;46.75;22.85;;;19.00;99.90;;;;;;5021008;28;20026;-56
2022/08/24 06:18:43;;;;;;;54.58;22.80;;;19.10;99.90;;;;;;5018750;28;20083;-58
2022/08/24 06:21:14;;;;;;;49.25;23.33;;;19.00;99.90;;;;;;5018830;28;20465;-55
2022/08/24 06:23:42;;;;;;;55.65;26.17;;;19.10;99.90;;;;;;5022135;28;20033;-55
2022/08/24 06:28:55;;;;;;;52.33;26.33;;;19.20;99.90;;;;;;5017340;28;20121;-56
2022/08/24 06:31:23;;;;;;;54.95;25.40;;;19.20;99.90;;;;;;5015467;28;20188;-55
2022/08/24 06:33:49;;;;;;;;;;;19.30;99.90;;;;;;5015101;28;20045;-55
2022/08/24 06:36:14;;;;;;;57.72;27.42;;;19.30;99.90;;;;;;5014859;28;19904;-55
2022/08/24 06:38:40;;;;;;;60.05;28.10;;;19.30;99.90;;;;;;5025768;28;20050;-55
2022/08/24 06:41:06;;;;;;;54.42;26.42;;;19.30;99.90;;;;;;5021387;28;20397;-56
2022/08/24 06:43:33;;;;;;;53.00;27.90;;;19.30;99.90;;;;;;5020772;28;20029;-56
2022/08/24 06:45:59;;;;;;;59.13;28.23;;;19.30;99.90;;;;;;5020936;28;20108;-55
2022/08/24 06:48:25;;;;;;;51.67;26.80;;;19.30;99.90;;;;;;5016843;28;20030;-56
2022/08/24 06:50:52;;;;;;;51.05;26.30;;;19.40;99.90;;;;;;5015756;28;20028;-56
2022/08/24 06:53:18;;;;;;;46.08;26.02;;;19.30;99.90;;;;;;5021030;28;20501;-56
2022/08/24 06:55:47;;;;;;;;;;;19.40;99.90;;;;;;5019581;28;20066;-56
2022/08/24 06:58:13;;;;;;;49.20;26.27;;;19.40;99.90;;;;;;5027661;28;19944;-56
2022/08/24 07:00:39;;;;;;;52.47;27.40;;;19.50;99.90;;;;;;5019326;28;20029;-55
2022/08/24 07:03:05;;;;;;;47.27;25.33;;;19.60;99.90;;;;;;5020486;28;20057;-55
2022/08/24 07:05:31;;;;;;;48.70;27.10;;;19.50;99.90;;;;;;5019125;28;20078;-56
2022/08/24 07:07:58;;;;;;;48.15;27.67;;;19.60;99.90;;;;;;5018852;28;20123;-56
2022/08/24 07:10:24;;;;;;;48.35;27.00;;;19.50;99.90;;;;;;5020568;28;20028;-55
2022/08/24 07:12:49;;;;;;;52.33;27.55;;;19.60;99.90;;;;;;5018630;28;20105;-55
2022/08/24 07:15:15;;;;;;;48.58;27.38;;;19.60;99.90;;;;;;5019282;28;20065;-54
2022/08/24 07:17:41;;;;;;;52.88;28.40;;;19.70;99.90;;;;;;5020468;28;20706;-56
2022/08/24 07:20:07;;;;;;;48.58;28.42;;;19.70;99.90;;;;;;5018326;28;20093;-55
2022/08/24 07:22:33;;;;;;;55.40;27.20;;;19.80;99.90;;;;;;5019035;28;20034;-55
2022/08/24 07:24:59;;;;;;;49.60;27.35;;;19.80;99.90;;;;;;5019684;28;20039;-55
2022/08/24 07:27:25;;;;;;;44.63;26.23;;;19.80;99.90;;;;;;5017624;28;20028;-55
2022/08/24 07:29:53;;;;;;;42.53;25.75;;;19.90;99.90;;;;;;5019297;28;20093;-57
2022/08/24 07:32:19;;;;;;;45.53;26.95;;;19.90;99.90;;;;;;5019580;28;20030;-55
2022/08/24 07:34:45;;;;;;;42.97;26.33;;;19.90;99.90;;;;;;5017562;28;20038;-55
2022/08/24 07:37:11;;;;;;;40.83;25.08;;;19.90;99.90;;;;;;5019409;28;20053;-55
2022/08/24 07:39:37;;;;;;;42.53;25.95;;;19.90;99.90;;;;;;5019373;28;20034;-55
2022/08/24 07:42:03;;;;;;;41.72;24.00;;;19.90;99.90;;;;;;5017645;28;20034;-55
2022/08/24 07:44:30;;;;;;;36.03;23.75;;;19.90;99.90;;;;;;5018135;28;20024;-55
2022/08/24 07:46:56;;;;;;;;;;;19.90;99.90;;;;;;5019153;28;20033;-55
2022/08/24 07:49:21;;;;;;;38.78;25.05;;;19.90;99.90;;;;;;5019704;28;19914;-55
2022/08/24 07:51:48;;;;;;;38.42;24.00;;;19.90;99.90;;;;;;5017942;28;20436;-55
2022/08/24 07:54:14;;;;;;;37.13;24.35;;;19.90;99.90;;;;;;5018455;28;20499;-55
2022/08/24 07:56:41;;;;;;;44.22;26.80;;;19.90;99.90;;;;;;5019494;28;20065;-55
2022/08/24 07:59:07;;;;;;;37.20;24.27;;;20.00;99.90;;;;;;5017469;28;20038;-55
2022/08/24 08:01:33;;;;;;;33.58;22.88;;;20.00;99.90;;;;;;5021851;28;20026;-55
2022/08/24 08:03:58;;;;;;;35.72;23.67;;;20.10;99.90;;;;;;5020808;28;20107;-56
2022/08/24 08:06:24;;;;;;;35.75;23.17;;;20.10;99.90;;;;;;5012380;28;20042;-56
2022/08/24 08:08:50;;;;;;;41.38;22.73;;;20.10;99.90;;;;;;5012463;28;20084;-55
2022/08/24 08:11:15;;;;;;;35.47;23.63;;;20.20;99.90;;;;;;5012527;28;20021;-55
2022/08/24 08:13:41;;;;;;;32.85;22.30;;;20.20;99.90;;;;;;5012369;28;20031;-55
2022/08/24 08:16:07;;;;;;;33.63;23.27;;;20.20;99.90;;;;;;5009852;28;20069;-56
2022/08/24 08:18:33;;;;;;;37.33;23.90;;;20.30;99.90;;;;;;5012369;28;20018;-55
2022/08/24 08:21:01;;;;;;;44.20;26.45;;;20.30;99.90;;;;;;5012381;28;20385;-55
2022/08/24 08:26:16;;;;;;;38.70;23.48;;;20.40;99.90;;;;;;5010714;28;20124;-55
2022/08/24 08:28:43;;;;;;;37.63;24.35;;;20.40;99.90;;;;;;5012137;28;20112;-55
2022/08/24 08:31:08;;;;;;;34.92;23.42;;;20.50;99.90;;;;;;5012144;28;20025;-55
2022/08/24 08:33:37;;;;;;;37.38;22.45;;;20.50;99.90;;;;;;5012101;28;20018;-55
2022/08/24 08:36:13;;;;;;;35.90;22.95;;;20.50;99.90;;;;;;5011065;28;20026;-55
2022/08/24 08:38:39;;;;;;;35.78;23.48;;;20.50;99.90;;;;;;5005137;28;20048;-55
2022/08/24 08:41:50;;;;;;;37.67;22.25;;;20.60;99.90;;;;;;5003100;28;20729;-55
2022/08/24 08:44:51;;;;;;;34.33;20.95;;;20.60;99.90;;;;;;4996351;28;20118;-55
2022/08/24 08:47:44;;;;;;;33.45;22.98;;;20.70;99.90;;;;;;5009184;28;20041;-55
2022/08/24 08:50:24;;;;;;;40.67;23.60;;;20.80;99.90;;;;;;5009497;28;20013;-55
2022/08/24 08:53:19;;;;;;;42.85;22.23;;;20.80;99.90;;;;;;5009567;28;20083;-56
2022/08/24 08:55:57;;;;;;;40.53;23.02;;;20.80;99.90;;;;;;5011414;28;20101;-55
2022/08/24 08:59:02;;;;;;;33.65;22.02;;;20.80;99.90;;;;;;5011228;28;20385;-55
2022/08/24 09:01:52;;;;;;;35.83;23.15;;;20.80;99.90;;;;;;5008591;28;20034;-55
2022/08/24 09:04:55;;;;;;;39.53;23.35;;;20.90;99.90;;;;;;5013409;28;20042;-55
2022/08/24 09:07:26;;;;;;;34.55;23.10;;;21.00;99.90;;;;;;5019978;28;20026;-55
2022/08/24 09:13:06;;;;;;;37.15;24.25;;;20.90;99.90;;;;;;5023287;28;20516;-95
2022/08/24 09:15:35;;;;;;;48.03;25.33;;;20.90;99.90;;;;;;5024283;28;20032;-91
2022/08/24 09:18:29;;;;;;;49.92;28.23;;;20.90;99.90;;;;;;5011058;28;20033;-92
2022/08/24 09:21:19;;;;;;;41.90;24.88;;;20.90;99.90;;;;;;5022290;28;20039;-89
2022/08/24 09:23:59;;;;;;;39.58;24.30;;;21.00;99.90;;;;;;5006396;28;20108;-92
2022/08/24 09:26:29;;;;;;;34.67;23.85;;;20.90;99.90;;;;;;5028165;28;20021;-93
2022/08/24 09:29:04;;;;;;;39.05;24.55;;;20.90;99.90;;;;;;5007532;28;20473;-92
2022/08/24 09:31:51;;;;;;;41.75;23.77;;;21.00;99.90;;;;;;5026894;28;20037;-90
2022/08/24 09:34:26;;;;;;;44.90;23.65;;;20.90;99.90;;;;;;5034584;28;20026;-88
2022/08/24 09:37:17;;;;;;;34.90;23.58;;;20.90;99.90;;;;;;5016673;28;20030;-89
2022/08/24 09:39:48;;;;;;;36.20;23.17;;;20.90;99.90;;;;;;5036565;28;20022;-87
2022/08/24 09:42:17;;;;;;;34.47;22.15;;;21.00;99.90;;;;;;5015923;28;20041;-87
2022/08/24 09:44:46;;;;;;;35.63;22.70;;;20.90;99.90;;;;;;5016995;28;20079;-89
2022/08/24 09:47:28;;;;;;;37.88;23.67;;;21.00;99.90;;;;;;5018291;28;20333;-88
2022/08/24 09:50:23;;;;;;;38.55;22.40;;;21.00;99.90;;;;;;5015729;28;20052;-90
2022/08/24 09:53:40;;;;;;;39.13;22.48;;;21.10;99.90;;;;;;5025896;28;20025;-92
2022/08/24 09:56:37;;;;;;;37.08;23.55;;;21.10;99.90;;;;;;4987432;28;20067;-92
2022/08/24 09:59:14;;;;;;;42.47;23.98;;;21.20;99.90;;;;;;5005240;28;20032;-92
2022/08/24 10:02:00;;;;;;;40.45;26.63;;;21.20;99.90;;;;;;5005344;28;20045;-90
2022/08/24 10:04:39;;;;;;;41.90;24.77;;;21.20;99.90;;;;;;5007893;28;20032;-89
2022/08/24 10:07:33;;;;;;;37.03;23.30;;;21.30;99.90;;;;;;5007421;28;20030;-91
2022/08/24 10:10:50;;;;;;;39.92;22.02;;;21.40;99.90;;;;;;5028008;28;20053;-90
2022/08/24 10:13:24;;;;;;;43.63;23.65;;;21.40;99.90;;;;;;4961100;28;20042;-87
2022/08/24 10:16:39;;;;;;;36.95;23.80;;;21.40;99.90;;;;;;4968896;28;20094;-90
2022/08/24 10:19:32;;;;;;;37.53;24.13;;;21.50;99.90;;;;;;4995916;28;20474;-89
2022/08/24 10:22:05;;;;;;;38.72;23.55;;;21.60;99.90;;;;;;5021811;28;20493;-88
2022/08/24 10:24:49;;;;;;;38.90;23.48;;;21.50;99.90;;;;;;5012487;28;21218;-90
2022/08/24 10:27:17;;;;;;;44.10;26.25;;;21.50;99.90;;;;;;5023516;28;20021;-91
2022/08/24 10:30:10;;;;;;;41.97;24.60;;;21.60;99.90;;;;;;5006517;28;20481;-89
2022/08/24 10:33:01;;;;;;;40.08;25.67;;;21.60;99.90;;;;;;5005566;28;20057;-90
2022/08/24 10:35:45;;;;;;;35.58;23.77;;;21.70;99.90;;;;;;5023213;28;20017;-91
2022/08/24 10:41:56;;;;;;;38.83;25.10;;;21.80;99.90;;;;;;4974664;28;20026;-91
2022/08/24 10:44:43;;;;;;;183.02;136.60;;;21.80;99.90;;;;;;5021110;28;20109;-91
2022/08/24 10:47:21;;;;;;;47.23;26.63;;;21.80;99.90;;;;;;5014722;28;20012;-92
2022/08/24 10:50:09;;;;;;;41.45;24.85;;;21.90;99.90;;;;;;5034901;28;20017;-91
2022/08/24 10:53:04;;;;;;;37.63;23.58;;;22.00;99.90;;;;;;5019729;28;20029;-90
2022/08/24 10:55:32;;;;;;;45.65;25.80;;;22.20;99.90;;;;;;5019286;28;20037;-92
2022/08/24 10:58:33;;;;;;;49.15;25.88;;;22.30;99.90;;;;;;5016252;28;20022;-94
2022/08/24 11:01:23;;;;;;;41.55;25.45;;;22.50;99.90;;;;;;5006387;28;20065;-93
2022/08/24 11:03:54;;;;;;;39.17;26.48;;;22.60;99.90;;;;;;5005086;28;20131;-87
2022/08/24 11:06:22;;;;;;;41.80;26.60;;;22.60;99.90;;;;;;5027254;28;20022;-86
2022/08/24 11:08:54;;;;;;;38.53;25.45;;;22.70;99.90;;;;;;5003834;28;20025;-86
2022/08/24 11:11:33;;;;;;;43.08;24.35;;;22.90;99.90;;;;;;5007275;28;20080;-87
2022/08/24 11:14:03;;;;;;;38.88;25.65;;;23.00;99.90;;;;;;5005297;28;20084;-86
2022/08/24 11:16:41;;;;;;;40.35;24.10;;;23.10;99.90;;;;;;5020221;28;20533;-88
2022/08/24 11:19:25;;;;;;;42.40;24.40;;;22.90;99.90;;;;;;5022277;28;20029;-88
2022/08/24 11:21:53;;;;;;;39.78;25.95;;;22.90;99.90;;;;;;5022246;28;20059;-86
2022/08/24 11:24:29;;;;;;;37.15;25.38;;;23.00;99.90;;;;;;5003814;28;20026;-91
2022/08/24 11:27:04;;;;;;;44.40;25.25;;;22.90;99.90;;;;;;5021542;28;20597;-85
2022/08/24 11:29:50;;;;;;;41.05;25.20;;;22.90;99.90;;;;;;5004613;28;20080;-87
2022/08/24 11:32:41;;;;;;;49.75;27.05;;;22.90;99.90;;;;;;5012302;28;20040;-88
2022/08/24 11:35:27;;;;;;;51.38;28.65;;;22.90;99.90;;;;;;5057797;23;20054;-54
2022/08/24 11:38:07;;;;;;;44.50;26.88;;;23.00;99.90;;;;;;5010951;28;20057;-55
2022/08/24 11:40:39;;;;;;;52.22;28.52;;;23.10;99.90;;;;;;5010735;28;20022;-56
2022/08/24 11:43:19;;;;;;;45.53;29.17;;;23.10;99.90;;;;;;5011916;28;20330;-55
2022/08/24 11:45:56;;;;;;;43.95;26.85;;;23.20;99.90;;;;;;5012639;28;20030;-56
2022/08/24 11:48:46;;;;;;;47.45;29.25;;;23.50;99.90;;;;;;5012628;28;20030;-57
2022/08/24 11:51:48;;;;;;;38.95;26.98;;;23.60;99.90;;;;;;5010889;28;20022;-56
2022/08/24 11:54:32;;;;;;;40.90;26.70;;;23.90;99.90;;;;;;5007564;28;20515;-56
2022/08/24 11:57:25;;;;;;;40.85;28.63;;;24.00;99.90;;;;;;5012114;28;20108;-57
2022/08/24 12:00:09;;;;;;;51.25;25.45;;;24.00;99.90;;;;;;5009561;28;20397;-57
2022/08/24 12:02:43;;;;;;;37.88;24.90;;;24.00;99.90;;;;;;4997673;28;20561;-56
2022/08/24 12:05:09;;;;;;;43.25;26.95;;;24.20;99.90;;;;;;5008217;28;20044;-57
2022/08/24 12:07:43;;;;;;;41.22;26.65;;;24.10;99.90;;;;;;5012667;28;20018;-56
2022/08/24 12:10:43;;;;;;;43.65;25.15;;;24.10;99.90;;;;;;5013067;28;20062;-58
2022/08/24 12:13:27;;;;;;;42.15;25.05;;;24.00;99.90;;;;;;5012625;28;20025;-57
2022/08/24 12:16:08;;;;;;;42.78;23.63;;;24.30;99.90;;;;;;5011208;28;20094;-56
2022/08/24 12:18:49;;;;;;;42.03;24.55;;;24.60;99.90;;;;;;5011297;28;20037;-56
2022/08/24 12:21:18;;;;;;;39.50;21.25;;;24.80;99.90;;;;;;5010599;28;20033;-56
2022/08/24 12:23:51;;;;;;;48.70;22.02;;;25.00;99.90;;;;;;5011287;28;20049;-56
2022/08/24 12:26:27;;;;;;;37.25;21.80;;;25.30;99.90;;;;;;5011045;28;20045;-55
2022/08/24 12:29:00;;;;;;;40.55;23.45;;;25.20;99.90;;;;;;5010359;28;20022;-56
2022/08/24 12:31:29;;;;;;;35.72;20.50;;;25.20;99.90;;;;;;5007221;28;20033;-56
2022/08/24 12:34:00;;;;;;;27.48;19.13;;;25.30;99.90;;;;;;5004155;28;20497;-56
2022/08/24 12:36:32;;;;;;;33.97;17.52;;;25.30;99.90;;;;;;5007127;28;20053;-57
2022/08/24 12:39:17;;;;;;;30.35;18.25;;;25.50;99.90;;;;;;5010594;28;20394;-56
2022/08/24 12:42:12;;;;;;;36.85;18.10;;;25.50;99.90;;;;;;5011387;28;20038;-56
2022/08/24 12:44:48;;;;;;;34.28;18.13;;;25.80;99.90;;;;;;5005243;28;20389;-56
2022/08/24 12:47:31;;;;;;;32.80;18.08;;;25.80;99.90;;;;;;5011240;28;20059;-55
2022/08/24 12:50:06;;;;;;;42.58;18.25;;;26.10;99.90;;;;;;5011056;28;20034;-54
2022/08/24 12:53:07;;;;;;;37.55;16.83;;;26.10;99.90;;;;;;4995861;28;20173;-54
2022/08/24 12:56:10;;;;;;;37.47;16.98;;;26.40;99.90;;;;;;4991988;28;20022;-54
2022/08/24 12:58:53;;;;;;;42.75;17.02;;;26.50;99.90;;;;;;5009537;28;20057;-55
2022/08/24 13:01:22;;;;;;;39.60;15.77;;;26.30;99.90;;;;;;5004261;28;20036;-55
2022/08/24 13:04:21;;;;;;;29.58;15.48;;;26.20;99.90;;;;;;5010143;28;20046;-55
2022/08/24 13:07:05;;;;;;;32.85;15.93;;;26.20;99.90;;;;;;4991988;28;20039;-55